OMFJ/FJR METAR and TAF weather

Enter ICAO airport designator
Station Type Date Time Source
OMFJ METAR 2022/06/30 01:00 UTC NOAA

OMFJ 300100Z 08003KT 6000 NSC 33/26 Q0994 A2938


Station Type Date Time Source
OMFJ Decoded METAR 2022/06/30 01:00 UTC NOAA

Fujairah, United Arab Emirates (OMFJ) 25-06N 056-20E 28M
Jun 29, 2022 - 09:00 PM EDT / 2022.06.30 0100 UTC
Wind: from the E (080 degrees) at 3 MPH (3 KT):0
Visibility: 3 mile(s):0
Temperature: 91 F (33 C)
Heat index: 106.2 F (41.2 C):1
Dew Point: 78 F (26 C)
Relative Humidity: 66%
Pressure (altimeter): 29.38 in. Hg (994 hPa)
ob: OMFJ 300100Z 08003KT 6000 NSC 33/26 Q0994 A2938
cycle: 1

Station Type Date Time Source
OMFJ TAF 2022/06/29 18:02 UTC NOAA

TAF OMFJ 291700Z 2918/0100 16005KT 6000 NSC PROB30 2923/3003 4000 HZ FEW018
BECMG 3005/3007 08008KT
BECMG 3014/3016 VRB03KT

Example: see airport list